createdAt,value
2023-04-29T00:02:05.934Z,56.40
2023-04-29T00:04:58.920Z,54.31
2023-04-29T00:07:45.578Z,55.11
2023-04-29T00:10:39.733Z,56.45
2023-04-29T00:13:22.906Z,58.15
2023-04-29T00:16:15.627Z,59.35
2023-04-29T00:19:01.416Z,64.74
2023-04-29T00:21:46.826Z,68.14
2023-04-29T00:24:39.479Z,65.94
2023-04-29T00:27:32.656Z,63.38
2023-04-29T00:30:25.632Z,61.24
2023-04-29T00:33:12.915Z,56.96
2023-04-29T00:36:06.014Z,54.50
2023-04-29T00:39:00.339Z,54.92
2023-04-29T00:41:46.637Z,56.27
2023-04-29T00:44:32.261Z,57.76
2023-04-29T00:47:25.342Z,58.84
2023-04-29T00:50:18.573Z,63.96
2023-04-29T00:53:12.984Z,67.69
2023-04-29T00:56:00.874Z,65.74
2023-04-29T00:58:53.945Z,63.18
2023-04-29T01:01:46.959Z,60.82
2023-04-29T01:04:39.985Z,55.93
2023-04-29T01:07:19.640Z,54.08
2023-04-29T01:10:16.418Z,54.60
2023-04-29T01:12:53.764Z,56.18
2023-04-29T01:15:46.733Z,57.25
2023-04-29T01:18:45.741Z,58.34
2023-04-29T01:21:50.017Z,59.52
2023-04-29T01:24:33.773Z,65.51
2023-04-29T01:27:34.532Z,68.31
2023-04-29T01:30:27.989Z,65.63
2023-04-29T01:33:31.333Z,63.40
2023-04-29T01:36:26.993Z,60.67
2023-04-29T01:39:34.848Z,56.39
2023-04-29T01:42:38.087Z,54.58
2023-04-29T01:45:32.406Z,55.64
2023-04-29T01:48:27.085Z,57.00
2023-04-29T01:50:59.805Z,58.58
2023-04-29T01:53:52.710Z,59.40
2023-04-29T01:56:36.909Z,64.35
2023-04-29T01:59:31.500Z,67.67
2023-04-29T02:02:36.771Z,65.42
2023-04-29T02:05:32.597Z,62.71
2023-04-29T02:08:16.140Z,60.59
2023-04-29T02:11:08.858Z,56.31
2023-04-29T02:14:04.697Z,54.40
2023-04-29T02:16:57.512Z,55.08
2023-04-29T02:19:50.412Z,56.27
2023-04-29T02:22:43.586Z,57.59
2023-04-29T02:25:20.714Z,59.28
2023-04-29T02:28:13.922Z,64.10
2023-04-29T02:30:59.402Z,68.07
2023-04-29T02:33:41.836Z,66.32
2023-04-29T02:36:35.025Z,64.20
2023-04-29T02:39:28.397Z,62.11
2023-04-29T02:42:13.897Z,57.93
2023-04-29T02:44:56.828Z,55.13
2023-04-29T02:47:49.819Z,55.43
2023-04-29T02:50:42.662Z,56.63
2023-04-29T02:53:34.164Z,58.04
2023-04-29T02:56:26.857Z,59.13
2023-04-29T02:59:11.219Z,64.31
2023-04-29T03:02:03.336Z,68.43
2023-04-29T03:04:36.176Z,66.73
2023-04-29T03:07:30.138Z,65.01
2023-04-29T03:10:13.732Z,62.93
2023-04-29T03:13:06.546Z,61.05
2023-04-29T03:16:00.761Z,56.94
2023-04-29T03:18:47.851Z,54.64
2023-04-29T03:21:40.514Z,55.14
2023-04-29T03:24:34.998Z,56.36
2023-04-29T03:27:28.027Z,57.52
2023-04-29T03:30:15.267Z,59.28
2023-04-29T03:33:08.584Z,64.56
2023-04-29T03:35:55.280Z,68.26
2023-04-29T03:38:45.832Z,66.57
2023-04-29T03:41:38.934Z,63.89
2023-04-29T03:44:31.693Z,61.88
2023-04-29T03:47:15.217Z,57.67
2023-04-29T03:50:08.615Z,54.85
2023-04-29T03:53:01.390Z,55.29
2023-04-29T03:55:47.116Z,56.49
2023-04-29T03:58:39.130Z,57.47
2023-04-29T04:01:21.958Z,58.96
2023-04-29T04:04:15.650Z,59.99
2023-04-29T04:07:03.969Z,65.33
2023-04-29T04:09:56.816Z,68.47
2023-04-29T04:12:49.710Z,65.51
2023-04-29T04:15:37.641Z,62.70
2023-04-29T04:18:30.437Z,60.56
2023-04-29T04:21:23.403Z,55.76
2023-04-29T04:24:18.888Z,53.72
2023-04-29T04:27:12.422Z,54.26
2023-04-29T04:29:49.707Z,55.79
2023-04-29T04:32:42.000Z,56.65
2023-04-29T04:35:34.869Z,58.07
2023-04-29T04:38:11.601Z,59.53
2023-04-29T04:40:47.407Z,63.68
2023-04-29T04:43:44.481Z,67.38
2023-04-29T04:46:30.045Z,64.48
2023-04-29T04:49:11.161Z,61.19
2023-04-29T04:52:04.181Z,55.89
2023-04-29T04:54:49.455Z,52.91
2023-04-29T04:57:26.998Z,53.01
2023-04-29T05:00:01.654Z,53.61
2023-04-29T05:02:37.137Z,54.24
2023-04-29T05:05:13.128Z,55.19
2023-04-29T05:07:46.861Z,56.07
2023-04-29T05:10:37.317Z,56.51
2023-04-29T05:13:15.537Z,57.33
2023-04-29T05:15:51.290Z,58.04
2023-04-29T05:18:27.254Z,59.12
2023-04-29T05:21:00.146Z,59.78
2023-04-29T05:23:36.694Z,59.61
2023-04-29T05:26:09.165Z,61.18
2023-04-29T05:28:42.187Z,61.39
2023-04-29T05:31:14.904Z,61.89
2023-04-29T05:33:47.562Z,64.33
2023-04-29T05:36:21.488Z,67.16
2023-04-29T05:38:54.306Z,63.99
2023-04-29T05:41:27.069Z,59.02
2023-04-29T05:44:11.628Z,54.47
2023-04-29T05:46:51.798Z,53.71
2023-04-29T05:49:24.890Z,53.47
2023-04-29T05:51:58.119Z,54.41
2023-04-29T05:54:30.388Z,54.51
2023-04-29T05:57:03.672Z,54.94
2023-04-29T05:59:37.653Z,55.75
2023-04-29T06:02:11.923Z,54.74
2023-04-29T06:04:47.961Z,55.56
2023-04-29T06:07:45.530Z,55.37
2023-04-29T06:10:37.140Z,56.05
2023-04-29T06:13:10.114Z,56.41
2023-04-29T06:15:42.609Z,55.85
2023-04-29T06:18:21.012Z,55.69
2023-04-29T06:21:04.027Z,55.74
2023-04-29T06:23:36.605Z,55.72
2023-04-29T06:26:16.338Z,55.25
2023-04-29T06:28:49.301Z,56.41
2023-04-29T06:31:23.149Z,56.29
2023-04-29T06:33:59.192Z,56.34
2023-04-29T06:36:33.820Z,55.48
2023-04-29T06:39:28.129Z,56.48
2023-04-29T06:42:36.833Z,56.23
2023-04-29T06:45:29.532Z,56.66
2023-04-29T06:48:11.514Z,55.86
2023-04-29T06:50:54.507Z,55.57
2023-04-29T06:53:27.638Z,54.96
2023-04-29T06:56:12.176Z,55.53
2023-04-29T06:58:44.645Z,54.72
2023-04-29T07:01:17.431Z,54.05
2023-04-29T07:03:50.893Z,54.02
2023-04-29T07:06:24.922Z,53.55
2023-04-29T07:08:59.955Z,53.12
2023-04-29T07:11:38.001Z,52.51
2023-04-29T07:14:10.560Z,51.93
2023-04-29T07:16:43.182Z,51.61
2023-04-29T07:19:16.085Z,51.61
2023-04-29T07:21:48.988Z,51.15
2023-04-29T07:24:23.137Z,51.20
2023-04-29T07:26:55.721Z,49.82
2023-04-29T07:29:28.427Z,48.56
2023-04-29T07:32:00.811Z,48.86
2023-04-29T07:34:35.261Z,48.19
2023-04-29T07:37:07.837Z,48.08
2023-04-29T07:39:42.570Z,47.39
2023-04-29T07:42:24.345Z,47.88
2023-04-29T07:44:58.830Z,46.92
2023-04-29T07:47:51.536Z,46.71
2023-04-29T07:50:24.518Z,45.52
2023-04-29T07:53:17.494Z,45.67
2023-04-29T07:56:00.293Z,45.23
2023-04-29T07:58:43.228Z,44.21
2023-04-29T08:01:18.680Z,43.93
2023-04-29T08:03:51.359Z,42.85
2023-04-29T08:06:35.833Z,44.14
2023-04-29T08:09:08.878Z,41.84
2023-04-29T08:11:47.242Z,40.74
2023-04-29T08:14:20.201Z,41.89
2023-04-29T08:16:55.919Z,40.18
2023-04-29T08:19:28.514Z,39.59
2023-04-29T08:22:04.417Z,38.32
2023-04-29T08:24:36.959Z,39.09
2023-04-29T08:27:09.614Z,39.17
2023-04-29T08:29:42.444Z,37.37
2023-04-29T08:32:14.828Z,36.25
2023-04-29T08:34:49.068Z,37.44
2023-04-29T08:37:22.693Z,37.51
2023-04-29T08:39:55.224Z,38.39
2023-04-29T08:42:36.435Z,39.42
2023-04-29T08:45:10.684Z,38.74
2023-04-29T08:47:49.850Z,39.91
2023-04-29T08:50:22.495Z,38.03
2023-04-29T08:52:54.869Z,38.06
2023-04-29T08:55:27.729Z,37.69
2023-04-29T08:58:01.718Z,38.28
2023-04-29T09:00:36.466Z,37.19
2023-04-29T09:03:21.644Z,36.70
2023-04-29T09:06:01.595Z,36.88
2023-04-29T09:08:49.451Z,36.30
2023-04-29T09:11:35.898Z,35.98
2023-04-29T09:14:20.688Z,36.15
2023-04-29T09:17:03.461Z,36.37
2023-04-29T09:19:38.308Z,36.36
2023-04-29T09:22:11.546Z,35.81
2023-04-29T09:24:46.475Z,36.28
2023-04-29T09:27:30.761Z,36.54
2023-04-29T09:30:07.666Z,36.64
2023-04-29T09:32:41.500Z,36.44
2023-04-29T09:35:27.967Z,36.92
2023-04-29T09:38:13.164Z,36.39
2023-04-29T09:40:58.892Z,36.95
2023-04-29T09:43:32.212Z,36.58
2023-04-29T09:46:05.025Z,37.23
2023-04-29T09:48:38.942Z,37.61
2023-04-29T09:51:12.229Z,37.27
2023-04-29T09:53:49.116Z,37.05
2023-04-29T09:56:22.713Z,37.08
2023-04-29T09:58:57.825Z,37.07
2023-04-29T10:01:32.253Z,37.07
2023-04-29T10:04:10.029Z,36.52
2023-04-29T10:06:42.391Z,36.18
2023-04-29T10:09:17.443Z,36.95
2023-04-29T10:11:51.793Z,36.87
2023-04-29T10:14:28.443Z,37.18
2023-04-29T10:17:10.081Z,36.81
2023-04-29T10:19:49.162Z,37.03
2023-04-29T10:22:29.986Z,36.72
2023-04-29T10:25:07.597Z,36.17
2023-04-29T10:27:41.704Z,36.90
2023-04-29T10:30:16.326Z,36.96
2023-04-29T10:32:53.785Z,35.99
2023-04-29T10:35:26.793Z,36.65
2023-04-29T10:38:02.899Z,35.75
2023-04-29T10:40:45.770Z,35.98
2023-04-29T10:43:24.021Z,36.43
2023-04-29T10:46:20.473Z,36.29
2023-04-29T10:48:57.750Z,36.64
2023-04-29T10:51:36.407Z,36.16
2023-04-29T10:54:14.197Z,36.24
2023-04-29T10:56:49.613Z,36.50
2023-04-29T10:59:24.332Z,36.57
2023-04-29T11:01:58.634Z,35.36
2023-04-29T11:04:32.720Z,35.35
2023-04-29T11:07:05.139Z,35.86
2023-04-29T11:09:39.748Z,35.44
2023-04-29T11:12:16.035Z,35.14
2023-04-29T11:14:53.850Z,35.97
2023-04-29T11:17:28.416Z,35.43
2023-04-29T11:20:02.769Z,34.59
2023-04-29T11:22:35.317Z,32.80
2023-04-29T11:25:11.651Z,33.24
2023-04-29T11:27:44.424Z,35.41
2023-04-29T11:30:19.722Z,35.29
2023-04-29T11:32:52.233Z,34.22
2023-04-29T11:35:25.135Z,34.66
2023-04-29T11:37:57.647Z,34.40
2023-04-29T11:40:30.780Z,33.52
2023-04-29T11:43:03.625Z,34.19
2023-04-29T11:45:38.355Z,33.61
2023-04-29T11:48:11.989Z,33.16
2023-04-29T11:50:44.785Z,32.77
2023-04-29T11:53:17.574Z,33.49
2023-04-29T11:55:50.100Z,32.94
2023-04-29T11:58:23.792Z,33.20
2023-04-29T12:00:59.731Z,32.96
2023-04-29T12:03:33.833Z,33.25
2023-04-29T12:06:08.517Z,33.57
2023-04-29T12:08:40.767Z,33.78
2023-04-29T12:11:17.741Z,33.66
2023-04-29T12:13:50.375Z,33.79
2023-04-29T12:16:24.275Z,33.59
2023-04-29T12:18:57.766Z,33.57
2023-04-29T12:21:30.023Z,33.06
2023-04-29T12:24:05.607Z,33.36
2023-04-29T12:26:38.306Z,33.08
2023-04-29T12:29:14.106Z,33.19
2023-04-29T12:31:51.460Z,32.90
2023-04-29T12:34:29.670Z,33.13
2023-04-29T12:37:02.938Z,32.65
2023-04-29T12:39:35.551Z,32.33
2023-04-29T12:42:08.200Z,33.02
2023-04-29T12:44:42.107Z,32.44
2023-04-29T12:47:14.892Z,32.62
2023-04-29T12:49:50.194Z,32.90
2023-04-29T12:52:22.907Z,33.16
2023-04-29T12:54:57.771Z,31.88
2023-04-29T12:57:31.480Z,32.21
2023-04-29T13:00:04.823Z,32.14
2023-04-29T13:02:37.313Z,32.09
2023-04-29T13:05:10.532Z,32.76
2023-04-29T13:07:43.168Z,33.69
2023-04-29T13:10:16.428Z,33.89
2023-04-29T13:12:48.688Z,33.84
2023-04-29T13:15:22.436Z,32.93
2023-04-29T13:17:55.776Z,33.29
2023-04-29T13:20:28.743Z,32.69
2023-04-29T13:23:01.405Z,33.05
2023-04-29T13:25:34.105Z,33.16
2023-04-29T13:28:08.123Z,33.11
2023-04-29T13:33:13.760Z,32.67
2023-04-29T13:35:47.010Z,32.48
2023-04-29T13:38:19.786Z,32.13
2023-04-29T13:40:54.733Z,32.87
2023-04-29T13:43:35.926Z,32.49
2023-04-29T13:46:11.450Z,32.10
2023-04-29T13:49:17.479Z,31.56
2023-04-29T13:52:16.997Z,32.14
2023-04-29T13:54:58.453Z,32.41
2023-04-29T13:59:58.706Z,32.09
2023-04-29T14:02:32.014Z,32.39
2023-04-29T14:05:05.107Z,32.50
2023-04-29T14:07:38.018Z,33.04
2023-04-29T14:10:12.942Z,32.70
2023-04-29T14:12:48.874Z,32.76
2023-04-29T14:15:21.481Z,32.86
2023-04-29T14:17:55.275Z,32.94
2023-04-29T14:20:27.909Z,32.91
2023-04-29T14:23:02.972Z,33.06
2023-04-29T14:25:35.553Z,33.59
2023-04-29T14:28:08.808Z,33.07
2023-04-29T14:30:46.212Z,32.88
2023-04-29T14:33:24.143Z,32.97
2023-04-29T14:35:57.576Z,33.64
2023-04-29T14:38:40.429Z,33.38
2023-04-29T14:41:13.605Z,33.95
2023-04-29T14:43:47.364Z,33.72
2023-04-29T14:46:23.486Z,33.30
2023-04-29T14:48:56.440Z,32.56
2023-04-29T14:51:29.652Z,32.63
2023-04-29T14:54:04.983Z,32.69
2023-04-29T14:56:39.003Z,33.06
2023-04-29T14:59:11.915Z,33.59
2023-04-29T15:01:44.803Z,33.75
2023-04-29T15:04:17.608Z,33.52
2023-04-29T15:06:50.947Z,33.70
2023-04-29T15:09:34.975Z,33.95
2023-04-29T15:12:08.232Z,34.00
2023-04-29T15:14:40.715Z,33.57
2023-04-29T15:17:13.278Z,33.49
2023-04-29T15:19:47.266Z,33.50
2023-04-29T15:22:19.979Z,33.54
2023-04-29T15:24:53.130Z,33.58
2023-04-29T15:27:26.108Z,33.57
2023-04-29T15:29:58.780Z,33.43
2023-04-29T15:32:33.335Z,33.27
2023-04-29T15:35:07.341Z,34.11
2023-04-29T15:37:41.146Z,34.02
2023-04-29T15:40:15.753Z,34.18
2023-04-29T15:42:48.558Z,34.54
2023-04-29T15:45:21.387Z,34.89
2023-04-29T15:47:53.762Z,35.31
2023-04-29T15:50:26.534Z,35.53
2023-04-29T15:52:59.943Z,35.72
2023-04-29T15:55:35.364Z,35.97
2023-04-29T15:58:08.028Z,36.21
2023-04-29T16:00:40.748Z,36.31
2023-04-29T16:03:13.561Z,36.29
2023-04-29T16:05:49.050Z,37.03
2023-04-29T16:08:21.600Z,36.95
2023-04-29T16:10:54.117Z,37.01
2023-04-29T16:13:26.792Z,37.36
2023-04-29T16:15:59.480Z,37.49
2023-04-29T16:18:32.446Z,37.65
2023-04-29T16:21:05.276Z,38.03
2023-04-29T16:23:39.142Z,38.48
2023-04-29T16:26:12.228Z,38.67
2023-04-29T16:28:45.359Z,38.91
2023-04-29T16:31:19.462Z,39.07
2023-04-29T16:33:55.006Z,39.61
2023-04-29T16:36:28.228Z,39.85
2023-04-29T16:39:00.852Z,40.24
2023-04-29T16:41:33.702Z,41.07
2023-04-29T16:44:06.522Z,41.25
2023-04-29T16:46:41.810Z,41.31
2023-04-29T16:49:14.465Z,41.79
2023-04-29T16:51:47.039Z,42.18
2023-04-29T16:54:19.787Z,42.14
2023-04-29T16:56:52.746Z,42.19
2023-04-29T16:59:28.192Z,42.21
2023-04-29T17:02:03.064Z,42.36
2023-04-29T17:04:35.763Z,42.54
2023-04-29T17:07:09.450Z,43.10
2023-04-29T17:09:42.195Z,43.07
2023-04-29T17:12:16.533Z,43.17
2023-04-29T17:14:49.661Z,43.55
2023-04-29T17:17:22.225Z,43.66
2023-04-29T17:19:55.782Z,43.75
2023-04-29T17:22:28.577Z,43.95
2023-04-29T17:25:02.394Z,44.55
2023-04-29T17:27:35.026Z,44.54
2023-04-29T17:30:09.351Z,44.91
2023-04-29T17:32:44.575Z,44.96
2023-04-29T17:35:18.275Z,45.36
2023-04-29T17:37:50.989Z,45.43
2023-04-29T17:40:24.326Z,45.91
2023-04-29T17:42:56.888Z,45.90
2023-04-29T17:45:30.149Z,46.37
2023-04-29T17:48:04.104Z,46.48
2023-04-29T17:50:39.404Z,46.31
2023-04-29T17:53:12.108Z,46.28
2023-04-29T17:55:45.037Z,46.95
2023-04-29T17:58:18.037Z,47.67
2023-04-29T18:00:50.611Z,47.55
2023-04-29T18:03:23.795Z,47.59
2023-04-29T18:05:56.187Z,47.66
2023-04-29T18:08:28.780Z,47.77
2023-04-29T18:11:02.440Z,48.12
2023-04-29T18:13:35.074Z,49.05
2023-04-29T18:16:09.206Z,50.45
2023-04-29T18:18:41.797Z,51.29
2023-04-29T18:21:14.285Z,52.09
2023-04-29T18:23:48.504Z,52.26
2023-04-29T18:26:22.095Z,52.73
2023-04-29T18:28:54.736Z,52.88
2023-04-29T18:31:27.526Z,52.76
2023-04-29T18:34:00.332Z,52.54
2023-04-29T18:36:33.998Z,52.95
2023-04-29T18:39:07.258Z,53.03
2023-04-29T18:41:44.198Z,53.30
2023-04-29T18:44:16.479Z,54.15
2023-04-29T18:46:51.400Z,54.17
2023-04-29T18:49:24.167Z,55.08
2023-04-29T18:51:56.985Z,55.31
2023-04-29T18:54:32.018Z,55.58
2023-04-29T18:57:05.246Z,57.27
2023-04-29T18:59:38.335Z,57.23
2023-04-29T19:02:10.745Z,56.90
2023-04-29T19:04:43.331Z,57.54
2023-04-29T19:07:16.169Z,57.85
2023-04-29T19:09:48.829Z,58.19
2023-04-29T19:12:23.016Z,58.36
2023-04-29T19:14:55.362Z,58.52
2023-04-29T19:17:28.289Z,58.98
2023-04-29T19:20:01.030Z,58.85
2023-04-29T19:22:33.828Z,59.33
2023-04-29T19:25:08.397Z,59.87
2023-04-29T19:27:45.201Z,59.75
2023-04-29T19:30:18.503Z,59.62
2023-04-29T19:32:51.445Z,60.01
2023-04-29T19:35:24.491Z,60.68
2023-04-29T19:37:57.103Z,60.97
2023-04-29T19:40:32.963Z,65.23
2023-04-29T19:43:05.257Z,67.73
2023-04-29T19:45:38.185Z,65.21
2023-04-29T19:48:12.016Z,62.41
2023-04-29T19:50:47.355Z,57.78
2023-04-29T19:53:20.366Z,54.35
2023-04-29T19:55:53.268Z,53.71
2023-04-29T19:58:26.147Z,53.55
2023-04-29T20:01:00.078Z,54.04
2023-04-29T20:03:32.941Z,53.84
2023-04-29T20:06:05.566Z,54.17
2023-04-29T20:08:38.384Z,55.49
2023-04-29T20:11:11.741Z,54.70
2023-04-29T20:13:46.200Z,54.83
2023-04-29T20:16:18.569Z,54.95
2023-04-29T20:18:51.175Z,56.66
2023-04-29T20:21:23.751Z,57.11
2023-04-29T20:23:56.404Z,57.33
2023-04-29T20:26:30.152Z,58.33
2023-04-29T20:29:02.644Z,58.46
2023-04-29T20:31:35.344Z,58.14
2023-04-29T20:34:08.248Z,58.20
2023-04-29T20:36:41.366Z,57.63
2023-04-29T20:39:15.842Z,57.53
2023-04-29T20:41:48.585Z,56.81
2023-04-29T20:44:21.513Z,56.65
2023-04-29T20:46:54.595Z,56.60
2023-04-29T20:49:27.380Z,56.90
2023-04-29T20:52:02.242Z,57.07
2023-04-29T20:54:35.085Z,56.37
2023-04-29T20:57:07.835Z,56.12
2023-04-29T20:59:40.835Z,55.85
2023-04-29T21:02:13.805Z,55.51
2023-04-29T21:04:47.969Z,54.82
2023-04-29T21:07:20.700Z,54.47
2023-04-29T21:09:54.270Z,54.35
2023-04-29T21:12:30.662Z,54.16
2023-04-29T21:15:05.095Z,54.25
2023-04-29T21:17:37.717Z,54.05
2023-04-29T21:20:12.865Z,54.15
2023-04-29T21:22:46.130Z,54.08
2023-04-29T21:25:18.831Z,54.21
2023-04-29T21:27:53.355Z,54.18
2023-04-29T21:30:26.235Z,53.99
2023-04-29T21:33:01.308Z,54.12
2023-04-29T21:35:33.837Z,54.18
2023-04-29T21:38:06.629Z,54.28
2023-04-29T21:40:44.721Z,54.80
2023-04-29T21:43:18.206Z,55.11
2023-04-29T21:45:51.013Z,55.13
2023-04-29T21:48:25.428Z,55.41
2023-04-29T21:50:58.724Z,55.31
2023-04-29T21:53:32.577Z,55.35
2023-04-29T21:56:05.493Z,56.02
2023-04-29T21:58:38.304Z,56.00
2023-04-29T22:01:27.029Z,56.12
2023-04-29T22:04:00.604Z,56.84
2023-04-29T22:06:33.653Z,57.34
2023-04-29T22:09:10.337Z,57.15
2023-04-29T22:11:44.179Z,57.06
2023-04-29T22:14:17.275Z,57.11
2023-04-29T22:16:50.052Z,57.22
2023-04-29T22:19:30.138Z,57.50
2023-04-29T22:22:03.291Z,58.10
2023-04-29T22:24:36.669Z,58.28
2023-04-29T22:27:29.273Z,58.39
2023-04-29T22:30:01.660Z,59.36
2023-04-29T22:32:37.314Z,60.25
2023-04-29T22:35:16.033Z,60.84
2023-04-29T22:37:49.017Z,61.35
2023-04-29T22:40:22.001Z,65.48
2023-04-29T22:43:06.408Z,68.60
2023-04-29T22:45:42.618Z,65.37
2023-04-29T22:48:15.263Z,59.10
2023-04-29T22:50:55.527Z,55.14
2023-04-29T22:53:30.330Z,54.64
2023-04-29T22:56:03.319Z,53.90
2023-04-29T22:58:35.969Z,53.85
2023-04-29T23:01:11.344Z,54.64
2023-04-29T23:03:44.673Z,55.34
2023-04-29T23:06:21.414Z,56.05
2023-04-29T23:08:54.032Z,56.81
2023-04-29T23:11:26.914Z,57.37
2023-04-29T23:13:59.348Z,58.14
2023-04-29T23:16:32.060Z,59.17
2023-04-29T23:19:08.132Z,59.91
2023-04-29T23:21:40.558Z,60.23
2023-04-29T23:24:13.096Z,60.66
2023-04-29T23:26:45.879Z,64.62
2023-04-29T23:29:18.761Z,68.28
2023-04-29T23:31:52.818Z,65.89
2023-04-29T23:34:25.884Z,61.98
2023-04-29T23:36:58.259Z,57.59
2023-04-29T23:39:30.711Z,54.79
2023-04-29T23:42:03.846Z,54.24
2023-04-29T23:44:37.018Z,55.31
2023-04-29T23:47:09.569Z,55.98
2023-04-29T23:49:42.346Z,57.17
2023-04-29T23:52:15.153Z,57.96
2023-04-29T23:54:47.744Z,58.45
2023-04-29T23:57:20.660Z,59.52
2023-04-29T23:59:56.592Z,60.09
